New Athens, Illinois
Current Conditions -  °F | °C
As of 8:58 PM on Saturday 25 Oct 2014 (Local Time) from KBLV Reporting Station
Clear Clear  
Wind Chill: 59°   Ceiling: Unl
Heat Index: 59°   Visibility: 10mi
Dew Point: 57°   Wind: 0mph
Humidity: 91%   Direction: NA
Pressure: 30.01"   Gusts: NA
Location:  38.33°N, 89.88°W
Report Text: KBLV 260158Z AUTO 00000KT 10SM CLR 15/14 A3001 RMK AO2 SLP164 T01510137 $
Loading
Personal Weather Stations






























Interactive Weather Map
Tropical Storm Tracking
New forecast layout! Learn more

10-Day Weather Forecast

Advertisements
Track Severe Weather on mobile